sensor_id;sensor_type;location;lat;lon;timestamp;P1;durP1;ratioP1;P2;durP2;ratioP2
73421;SDS011;61637;47.760;-122.022;2023-04-01T00:00:01;2.4;;;0.8;;
73421;SDS011;61637;47.760;-122.022;2023-04-01T00:02:01;2.2;;;0.8;;
73421;SDS011;61637;47.760;-122.022;2023-04-01T00:04:01;4.0;;;0.8;;
73421;SDS011;61637;47.760;-122.022;2023-04-01T00:06:02;2.0;;;0.8;;
73421;SDS011;61637;47.760;-122.022;2023-04-01T00:08:01;3.9;;;0.9;;
73421;SDS011;61637;47.760;-122.022;2023-04-01T00:10:01;2.1;;;0.7;;
73421;SDS011;61637;47.760;-122.022;2023-04-01T00:12:01;2.4;;;0.8;;
73421;SDS011;61637;47.760;-122.022;2023-04-01T00:14:02;2.2;;;0.8;;
73421;SDS011;61637;47.760;-122.022;2023-04-01T00:16:02;2.8;;;0.9;;
73421;SDS011;61637;47.760;-122.022;2023-04-01T00:18:02;3.0;;;0.8;;
73421;SDS011;61637;47.760;-122.022;2023-04-01T00:20:02;3.1;;;0.8;;
73421;SDS011;61637;47.760;-122.022;2023-04-01T00:22:01;2.1;;;0.7;;
73421;SDS011;61637;47.760;-122.022;2023-04-01T00:24:01;2.3;;;0.9;;
73421;SDS011;61637;47.760;-122.022;2023-04-01T00:26:02;2.9;;;0.8;;
73421;SDS011;61637;47.760;-122.022;2023-04-01T00:28:01;2.1;;;0.8;;
73421;SDS011;61637;47.760;-122.022;2023-04-01T00:30:01;2.0;;;0.8;;
73421;SDS011;61637;47.760;-122.022;2023-04-01T00:32:01;2.0;;;0.7;;
73421;SDS011;61637;47.760;-122.022;2023-04-01T00:34:01;1.9;;;0.7;;
73421;SDS011;61637;47.760;-122.022;2023-04-01T00:36:09;2.4;;;0.7;;
73421;SDS011;61637;47.760;-122.022;2023-04-01T00:38:01;2.4;;;0.7;;
73421;SDS011;61637;47.760;-122.022;2023-04-01T00:40:02;2.1;;;0.9;;
73421;SDS011;61637;47.760;-122.022;2023-04-01T00:42:02;1.8;;;0.7;;
73421;SDS011;61637;47.760;-122.022;2023-04-01T00:44:14;2.7;;;0.7;;
73421;SDS011;61637;47.760;-122.022;2023-04-01T00:46:01;2.7;;;0.7;;
73421;SDS011;61637;47.760;-122.022;2023-04-01T00:48:05;3.4;;;0.8;;
73421;SDS011;61637;47.760;-122.022;2023-04-01T00:50:02;2.0;;;0.7;;
73421;SDS011;61637;47.760;-122.022;2023-04-01T00:52:03;2.2;;;0.8;;
73421;SDS011;61637;47.760;-122.022;2023-04-01T00:54:02;2.2;;;0.7;;
73421;SDS011;61637;47.760;-122.022;2023-04-01T00:56:05;3.3;;;0.8;;
73421;SDS011;61637;47.760;-122.022;2023-04-01T00:58:05;2.4;;;0.8;;
73421;SDS011;61637;47.760;-122.022;2023-04-01T01:00:02;2.3;;;0.7;;
73421;SDS011;61637;47.760;-122.022;2023-04-01T01:02:03;2.3;;;0.9;;
73421;SDS011;61637;47.760;-122.022;2023-04-01T01:04:01;2.6;;;0.8;;
73421;SDS011;61637;47.760;-122.022;2023-04-01T01:06:12;2.6;;;0.8;;
73421;SDS011;61637;47.760;-122.022;2023-04-01T01:08:09;2.6;;;0.9;;
73421;SDS011;61637;47.760;-122.022;2023-04-01T01:10:06;2.3;;;0.9;;
73421;SDS011;61637;47.760;-122.022;2023-04-01T01:12:07;2.3;;;0.8;;
73421;SDS011;61637;47.760;-122.022;2023-04-01T01:14:09;2.4;;;0.8;;
73421;SDS011;61637;47.760;-122.022;2023-04-01T01:16:06;2.7;;;0.8;;
73421;SDS011;61637;47.760;-122.022;2023-04-01T01:18:07;3.0;;;0.8;;
73421;SDS011;61637;47.760;-122.022;2023-04-01T01:20:20;2.1;;;0.8;;
73421;SDS011;61637;47.760;-122.022;2023-04-01T01:22:16;2.7;;;1.0;;
73421;SDS011;61637;47.760;-122.022;2023-04-01T01:26:09;3.3;;;0.9;;
73421;SDS011;61637;47.760;-122.022;2023-04-01T01:28:18;2.3;;;0.9;;
73421;SDS011;61637;47.760;-122.022;2023-04-01T01:30:13;2.1;;;0.8;;
73421;SDS011;61637;47.760;-122.022;2023-04-01T01:32:09;2.2;;;0.9;;
73421;SDS011;61637;47.760;-122.022;2023-04-01T01:34:10;2.2;;;0.7;;
73421;SDS011;61637;47.760;-122.022;2023-04-01T01:36:04;2.5;;;0.9;;
73421;SDS011;61637;47.760;-122.022;2023-04-01T01:38:05;2.8;;;0.8;;
73421;SDS011;61637;47.760;-122.022;2023-04-01T01:40:05;3.7;;;0.9;;
73421;SDS011;61637;47.760;-122.022;2023-04-01T01:42:04;4.5;;;0.8;;
73421;SDS011;61637;47.760;-122.022;2023-04-01T01:44:02;2.1;;;0.8;;
73421;SDS011;61637;47.760;-122.022;2023-04-01T01:46:04;2.6;;;0.8;;
73421;SDS011;61637;47.760;-122.022;2023-04-01T01:48:02;3.2;;;0.8;;
73421;SDS011;61637;47.760;-122.022;2023-04-01T01:50:02;2.8;;;0.9;;
73421;SDS011;61637;47.760;-122.022;2023-04-01T01:52:02;2.5;;;0.6;;
73421;SDS011;61637;47.760;-122.022;2023-04-01T01:54:01;2.5;;;0.8;;
73421;SDS011;61637;47.760;-122.022;2023-04-01T01:56:01;2.5;;;0.9;;
73421;SDS011;61637;47.760;-122.022;2023-04-01T01:58:06;2.0;;;0.6;;
73421;SDS011;61637;47.760;-122.022;2023-04-01T02:00:06;3.0;;;0.8;;
73421;SDS011;61637;47.760;-122.022;2023-04-01T02:02:02;2.1;;;0.7;;
73421;SDS011;61637;47.760;-122.022;2023-04-01T02:04:02;1.7;;;0.6;;
73421;SDS011;61637;47.760;-122.022;2023-04-01T02:06:04;3.2;;;0.7;;
73421;SDS011;61637;47.760;-122.022;2023-04-01T02:08:05;2.8;;;0.8;;
73421;SDS011;61637;47.760;-122.022;2023-04-01T02:10:02;2.6;;;0.8;;
73421;SDS011;61637;47.760;-122.022;2023-04-01T02:12:05;2.3;;;0.8;;
73421;SDS011;61637;47.760;-122.022;2023-04-01T02:14:05;2.2;;;0.7;;
73421;SDS011;61637;47.760;-122.022;2023-04-01T02:16:06;2.5;;;0.8;;
73421;SDS011;61637;47.760;-122.022;2023-04-01T02:18:02;2.3;;;0.8;;
73421;SDS011;61637;47.760;-122.022;2023-04-01T02:20:06;2.9;;;0.9;;
73421;SDS011;61637;47.760;-122.022;2023-04-01T02:22:03;3.1;;;1.0;;
73421;SDS011;61637;47.760;-122.022;2023-04-01T02:24:04;2.5;;;0.8;;
73421;SDS011;61637;47.760;-122.022;2023-04-01T02:26:01;2.9;;;0.8;;
73421;SDS011;61637;47.760;-122.022;2023-04-01T02:28:03;1.9;;;0.7;;
73421;SDS011;61637;47.760;-122.022;2023-04-01T02:30:01;2.7;;;0.9;;
73421;SDS011;61637;47.760;-122.022;2023-04-01T02:32:03;2.4;;;0.8;;
73421;SDS011;61637;47.760;-122.022;2023-04-01T02:34:03;2.1;;;0.7;;
73421;SDS011;61637;47.760;-122.022;2023-04-01T02:36:02;1.9;;;0.7;;
73421;SDS011;61637;47.760;-122.022;2023-04-01T02:38:01;2.1;;;0.7;;
73421;SDS011;61637;47.760;-122.022;2023-04-01T02:40:02;2.7;;;0.9;;
73421;SDS011;61637;47.760;-122.022;2023-04-01T02:42:01;1.8;;;0.7;;
73421;SDS011;61637;47.760;-122.022;2023-04-01T02:44:01;2.5;;;0.8;;
73421;SDS011;61637;47.760;-122.022;2023-04-01T02:46:01;3.1;;;0.8;;
73421;SDS011;61637;47.760;-122.022;2023-04-01T02:48:01;1.7;;;0.6;;
73421;SDS011;61637;47.760;-122.022;2023-04-01T02:50:01;3.2;;;0.7;;
73421;SDS011;61637;47.760;-122.022;2023-04-01T02:52:01;2.0;;;0.7;;
73421;SDS011;61637;47.760;-122.022;2023-04-01T02:54:02;3.4;;;0.8;;
73421;SDS011;61637;47.760;-122.022;2023-04-01T02:56:01;2.9;;;0.9;;
73421;SDS011;61637;47.760;-122.022;2023-04-01T02:58:01;2.7;;;0.9;;
73421;SDS011;61637;47.760;-122.022;2023-04-01T03:00:02;2.3;;;0.8;;
73421;SDS011;61637;47.760;-122.022;2023-04-01T03:02:01;2.2;;;0.8;;
73421;SDS011;61637;47.760;-122.022;2023-04-01T03:04:01;3.0;;;1.2;;
73421;SDS011;61637;47.760;-122.022;2023-04-01T03:06:04;2.9;;;0.8;;
73421;SDS011;61637;47.760;-122.022;2023-04-01T03:08:01;2.2;;;0.8;;
73421;SDS011;61637;47.760;-122.022;2023-04-01T03:10:01;2.3;;;0.8;;
73421;SDS011;61637;47.760;-122.022;2023-04-01T03:12:01;3.4;;;0.9;;
73421;SDS011;61637;47.760;-122.022;2023-04-01T03:14:01;3.5;;;1.4;;
73421;SDS011;61637;47.760;-122.022;2023-04-01T03:16:01;2.9;;;0.9;;
73421;SDS011;61637;47.760;-122.022;2023-04-01T03:18:01;4.1;;;0.9;;
73421;SDS011;61637;47.760;-122.022;2023-04-01T03:20:01;2.2;;;0.8;;
73421;SDS011;61637;47.760;-122.022;2023-04-01T03:22:01;2.1;;;0.7;;
73421;SDS011;61637;47.760;-122.022;2023-04-01T03:24:01;2.6;;;0.7;;
73421;SDS011;61637;47.760;-122.022;2023-04-01T03:26:01;3.3;;;0.9;;
73421;SDS011;61637;47.760;-122.022;2023-04-01T03:28:02;2.8;;;0.9;;
73421;SDS011;61637;47.760;-122.022;2023-04-01T03:30:01;3.1;;;0.9;;
73421;SDS011;61637;47.760;-122.022;2023-04-01T03:32:01;2.1;;;0.8;;
73421;SDS011;61637;47.760;-122.022;2023-04-01T03:34:01;2.7;;;0.9;;
73421;SDS011;61637;47.760;-122.022;2023-04-01T03:36:01;2.8;;;0.9;;
73421;SDS011;61637;47.760;-122.022;2023-04-01T03:38:02;3.0;;;1.0;;
73421;SDS011;61637;47.760;-122.022;2023-04-01T03:40:02;3.0;;;0.9;;
73421;SDS011;61637;47.760;-122.022;2023-04-01T03:42:01;3.3;;;0.9;;
73421;SDS011;61637;47.760;-122.022;2023-04-01T03:44:01;3.0;;;0.9;;
73421;SDS011;61637;47.760;-122.022;2023-04-01T03:46:02;3.3;;;0.8;;
73421;SDS011;61637;47.760;-122.022;2023-04-01T03:48:01;3.3;;;0.9;;
73421;SDS011;61637;47.760;-122.022;2023-04-01T03:50:01;2.6;;;0.9;;
73421;SDS011;61637;47.760;-122.022;2023-04-01T03:52:02;2.4;;;0.8;;
73421;SDS011;61637;47.760;-122.022;2023-04-01T03:54:01;4.1;;;0.8;;
73421;SDS011;61637;47.760;-122.022;2023-04-01T03:56:04;3.2;;;0.9;;
73421;SDS011;61637;47.760;-122.022;2023-04-01T03:58:01;2.6;;;0.8;;
73421;SDS011;61637;47.760;-122.022;2023-04-01T04:00:01;3.1;;;1.0;;
73421;SDS011;61637;47.760;-122.022;2023-04-01T04:02:02;3.2;;;0.9;;
73421;SDS011;61637;47.760;-122.022;2023-04-01T04:04:01;1.9;;;0.8;;
73421;SDS011;61637;47.760;-122.022;2023-04-01T04:06:01;2.2;;;0.7;;
73421;SDS011;61637;47.760;-122.022;2023-04-01T04:08:02;3.1;;;0.8;;
73421;SDS011;61637;47.760;-122.022;2023-04-01T04:10:01;3.2;;;0.8;;
73421;SDS011;61637;47.760;-122.022;2023-04-01T04:12:01;2.2;;;0.6;;
73421;SDS011;61637;47.760;-122.022;2023-04-01T04:14:02;2.7;;;0.7;;
73421;SDS011;61637;47.760;-122.022;2023-04-01T04:16:02;2.3;;;0.7;;
73421;SDS011;61637;47.760;-122.022;2023-04-01T04:18:01;2.1;;;0.6;;
73421;SDS011;61637;47.760;-122.022;2023-04-01T04:20:02;2.5;;;0.7;;
73421;SDS011;61637;47.760;-122.022;2023-04-01T04:22:01;1.5;;;0.6;;
73421;SDS011;61637;47.760;-122.022;2023-04-01T04:24:02;2.1;;;0.6;;
73421;SDS011;61637;47.760;-122.022;2023-04-01T04:26:03;2.5;;;0.7;;
73421;SDS011;61637;47.760;-122.022;2023-04-01T04:28:01;3.3;;;0.8;;
73421;SDS011;61637;47.760;-122.022;2023-04-01T04:30:01;3.2;;;0.7;;
73421;SDS011;61637;47.760;-122.022;2023-04-01T04:32:01;2.9;;;0.7;;
73421;SDS011;61637;47.760;-122.022;2023-04-01T04:34:01;1.9;;;0.7;;
73421;SDS011;61637;47.760;-122.022;2023-04-01T04:36:03;2.8;;;0.7;;
73421;SDS011;61637;47.760;-122.022;2023-04-01T04:38:01;2.4;;;0.6;;
73421;SDS011;61637;47.760;-122.022;2023-04-01T04:40:02;2.3;;;0.5;;
73421;SDS011;61637;47.760;-122.022;2023-04-01T04:42:01;1.9;;;0.6;;
73421;SDS011;61637;47.760;-122.022;2023-04-01T04:44:01;2.2;;;0.6;;
73421;SDS011;61637;47.760;-122.022;2023-04-01T04:46:04;1.4;;;0.5;;
73421;SDS011;61637;47.760;-122.022;2023-04-01T04:48:01;2.8;;;0.6;;
73421;SDS011;61637;47.760;-122.022;2023-04-01T04:50:01;1.8;;;0.5;;
73421;SDS011;61637;47.760;-122.022;2023-04-01T04:52:01;2.1;;;0.6;;
73421;SDS011;61637;47.760;-122.022;2023-04-01T04:54:02;1.1;;;0.5;;
73421;SDS011;61637;47.760;-122.022;2023-04-01T04:56:01;2.5;;;0.6;;
73421;SDS011;61637;47.760;-122.022;2023-04-01T04:58:01;1.7;;;0.5;;
73421;SDS011;61637;47.760;-122.022;2023-04-01T05:00:02;1.7;;;0.5;;
73421;SDS011;61637;47.760;-122.022;2023-04-01T05:02:02;1.2;;;0.5;;
73421;SDS011;61637;47.760;-122.022;2023-04-01T05:04:02;1.9;;;0.5;;
73421;SDS011;61637;47.760;-122.022;2023-04-01T05:06:01;2.0;;;0.6;;
73421;SDS011;61637;47.760;-122.022;2023-04-01T05:08:01;1.9;;;0.6;;
73421;SDS011;61637;47.760;-122.022;2023-04-01T05:10:01;1.6;;;0.5;;
73421;SDS011;61637;47.760;-122.022;2023-04-01T05:12:01;2.0;;;0.6;;
73421;SDS011;61637;47.760;-122.022;2023-04-01T05:14:01;1.1;;;0.5;;
73421;SDS011;61637;47.760;-122.022;2023-04-01T05:16:02;1.5;;;0.5;;
73421;SDS011;61637;47.760;-122.022;2023-04-01T05:18:01;1.3;;;0.5;;
73421;SDS011;61637;47.760;-122.022;2023-04-01T05:20:01;2.0;;;0.5;;
73421;SDS011;61637;47.760;-122.022;2023-04-01T05:22:01;1.6;;;0.6;;
73421;SDS011;61637;47.760;-122.022;2023-04-01T05:24:01;2.9;;;0.6;;
73421;SDS011;61637;47.760;-122.022;2023-04-01T05:26:04;4.2;;;0.7;;
73421;SDS011;61637;47.760;-122.022;2023-04-01T05:28:01;2.0;;;0.6;;
73421;SDS011;61637;47.760;-122.022;2023-04-01T05:30:02;1.7;;;0.6;;
73421;SDS011;61637;47.760;-122.022;2023-04-01T05:32:01;2.0;;;0.6;;
73421;SDS011;61637;47.760;-122.022;2023-04-01T05:34:01;1.3;;;0.6;;
73421;SDS011;61637;47.760;-122.022;2023-04-01T05:36:10;2.9;;;0.7;;
73421;SDS011;61637;47.760;-122.022;2023-04-01T05:38:01;2.0;;;0.6;;
73421;SDS011;61637;47.760;-122.022;2023-04-01T05:40:01;2.4;;;0.7;;
73421;SDS011;61637;47.760;-122.022;2023-04-01T05:42:01;2.3;;;0.7;;
73421;SDS011;61637;47.760;-122.022;2023-04-01T05:44:02;3.1;;;0.7;;
73421;SDS011;61637;47.760;-122.022;2023-04-01T05:46:01;3.2;;;0.6;;
73421;SDS011;61637;47.760;-122.022;2023-04-01T05:48:01;1.6;;;0.6;;
73421;SDS011;61637;47.760;-122.022;2023-04-01T05:50:01;1.7;;;0.5;;
73421;SDS011;61637;47.760;-122.022;2023-04-01T05:52:01;2.6;;;0.6;;
73421;SDS011;61637;47.760;-122.022;2023-04-01T05:54:01;2.3;;;0.7;;
73421;SDS011;61637;47.760;-122.022;2023-04-01T05:56:03;1.6;;;0.7;;
73421;SDS011;61637;47.760;-122.022;2023-04-01T05:58:01;1.2;;;0.5;;
73421;SDS011;61637;47.760;-122.022;2023-04-01T06:00:01;1.4;;;0.6;;
73421;SDS011;61637;47.760;-122.022;2023-04-01T06:02:01;1.8;;;0.6;;
73421;SDS011;61637;47.760;-122.022;2023-04-01T06:04:02;1.7;;;0.6;;
73421;SDS011;61637;47.760;-122.022;2023-04-01T06:06:02;2.2;;;0.7;;
73421;SDS011;61637;47.760;-122.022;2023-04-01T06:08:08;2.1;;;0.6;;
73421;SDS011;61637;47.760;-122.022;2023-04-01T06:10:01;1.5;;;0.5;;
73421;SDS011;61637;47.760;-122.022;2023-04-01T06:12:19;1.3;;;0.6;;
73421;SDS011;61637;47.760;-122.022;2023-04-01T06:14:13;2.1;;;0.6;;
73421;SDS011;61637;47.760;-122.022;2023-04-01T06:16:07;1.8;;;0.5;;
73421;SDS011;61637;47.760;-122.022;2023-04-01T06:20:10;1.4;;;0.6;;
73421;SDS011;61637;47.760;-122.022;2023-04-01T06:22:09;2.3;;;0.6;;
73421;SDS011;61637;47.760;-122.022;2023-04-01T06:24:15;1.9;;;0.6;;
73421;SDS011;61637;47.760;-122.022;2023-04-01T06:26:06;2.0;;;0.7;;
73421;SDS011;61637;47.760;-122.022;2023-04-01T06:28:21;3.8;;;0.7;;
73421;SDS011;61637;47.760;-122.022;2023-04-01T06:30:10;2.0;;;0.6;;
73421;SDS011;61637;47.760;-122.022;2023-04-01T06:32:15;1.5;;;0.6;;
73421;SDS011;61637;47.760;-122.022;2023-04-01T06:34:14;2.7;;;0.6;;
73421;SDS011;61637;47.760;-122.022;2023-04-01T06:36:15;2.3;;;0.7;;
73421;SDS011;61637;47.760;-122.022;2023-04-01T06:38:07;2.1;;;0.7;;
73421;SDS011;61637;47.760;-122.022;2023-04-01T06:40:12;2.1;;;0.7;;
73421;SDS011;61637;47.760;-122.022;2023-04-01T06:42:15;2.3;;;0.5;;
73421;SDS011;61637;47.760;-122.022;2023-04-01T06:44:09;1.9;;;0.7;;
73421;SDS011;61637;47.760;-122.022;2023-04-01T06:46:06;1.7;;;0.6;;
73421;SDS011;61637;47.760;-122.022;2023-04-01T06:48:14;2.0;;;0.6;;
73421;SDS011;61637;47.760;-122.022;2023-04-01T06:50:07;2.1;;;0.8;;
73421;SDS011;61637;47.760;-122.022;2023-04-01T06:52:06;3.5;;;0.8;;
73421;SDS011;61637;47.760;-122.022;2023-04-01T06:54:06;2.5;;;0.8;;
73421;SDS011;61637;47.760;-122.022;2023-04-01T06:56:06;2.6;;;0.7;;
73421;SDS011;61637;47.760;-122.022;2023-04-01T06:58:04;2.0;;;0.7;;
73421;SDS011;61637;47.760;-122.022;2023-04-01T07:00:04;2.4;;;0.6;;
73421;SDS011;61637;47.760;-122.022;2023-04-01T07:02:11;2.5;;;0.7;;
73421;SDS011;61637;47.760;-122.022;2023-04-01T07:04:05;2.9;;;0.8;;
73421;SDS011;61637;47.760;-122.022;2023-04-01T07:06:04;2.1;;;0.7;;
73421;SDS011;61637;47.760;-122.022;2023-04-01T07:08:04;2.4;;;0.8;;
73421;SDS011;61637;47.760;-122.022;2023-04-01T07:10:06;4.9;;;0.9;;
73421;SDS011;61637;47.760;-122.022;2023-04-01T07:12:06;2.2;;;0.7;;
73421;SDS011;61637;47.760;-122.022;2023-04-01T07:14:06;2.5;;;0.8;;
73421;SDS011;61637;47.760;-122.022;2023-04-01T07:16:11;3.5;;;1.0;;
73421;SDS011;61637;47.760;-122.022;2023-04-01T07:18:05;3.7;;;1.0;;
73421;SDS011;61637;47.760;-122.022;2023-04-01T07:20:05;2.7;;;0.8;;
73421;SDS011;61637;47.760;-122.022;2023-04-01T07:22:05;2.8;;;0.8;;
73421;SDS011;61637;47.760;-122.022;2023-04-01T07:24:05;1.9;;;0.7;;
73421;SDS011;61637;47.760;-122.022;2023-04-01T07:26:08;1.9;;;0.8;;
73421;SDS011;61637;47.760;-122.022;2023-04-01T07:28:04;3.1;;;0.7;;
73421;SDS011;61637;47.760;-122.022;2023-04-01T07:30:02;2.7;;;0.6;;
73421;SDS011;61637;47.760;-122.022;2023-04-01T07:32:13;1.3;;;0.5;;
73421;SDS011;61637;47.760;-122.022;2023-04-01T07:34:07;2.4;;;0.8;;
73421;SDS011;61637;47.760;-122.022;2023-04-01T07:36:05;1.8;;;0.6;;
73421;SDS011;61637;47.760;-122.022;2023-04-01T07:38:09;1.8;;;0.7;;
73421;SDS011;61637;47.760;-122.022;2023-04-01T07:40:12;2.2;;;0.7;;
73421;SDS011;61637;47.760;-122.022;2023-04-01T07:42:10;1.7;;;0.6;;
73421;SDS011;61637;47.760;-122.022;2023-04-01T07:44:10;2.8;;;0.7;;
73421;SDS011;61637;47.760;-122.022;2023-04-01T07:46:10;2.0;;;0.8;;
73421;SDS011;61637;47.760;-122.022;2023-04-01T07:48:08;1.9;;;0.7;;
73421;SDS011;61637;47.760;-122.022;2023-04-01T07:50:10;2.5;;;0.8;;
73421;SDS011;61637;47.760;-122.022;2023-04-01T07:52:05;1.7;;;0.7;;
73421;SDS011;61637;47.760;-122.022;2023-04-01T07:54:07;2.9;;;0.9;;
73421;SDS011;61637;47.760;-122.022;2023-04-01T07:56:05;3.3;;;0.8;;
73421;SDS011;61637;47.760;-122.022;2023-04-01T07:58:06;2.0;;;0.6;;
73421;SDS011;61637;47.760;-122.022;2023-04-01T08:00:06;1.9;;;0.8;;
73421;SDS011;61637;47.760;-122.022;2023-04-01T08:02:07;2.3;;;0.8;;
73421;SDS011;61637;47.760;-122.022;2023-04-01T08:04:15;2.4;;;1.0;;
73421;SDS011;61637;47.760;-122.022;2023-04-01T08:06:08;3.9;;;0.9;;
73421;SDS011;61637;47.760;-122.022;2023-04-01T08:08:09;3.5;;;0.9;;
73421;SDS011;61637;47.760;-122.022;2023-04-01T08:10:08;3.8;;;1.0;;
73421;SDS011;61637;47.760;-122.022;2023-04-01T08:12:08;4.1;;;0.9;;
73421;SDS011;61637;47.760;-122.022;2023-04-01T08:14:06;5.8;;;2.1;;
73421;SDS011;61637;47.760;-122.022;2023-04-01T08:16:09;10.1;;;8.7;;
73421;SDS011;61637;47.760;-122.022;2023-04-01T08:18:14;7.6;;;6.3;;
73421;SDS011;61637;47.760;-122.022;2023-04-01T08:20:14;5.3;;;3.2;;
73421;SDS011;61637;47.760;-122.022;2023-04-01T08:22:07;6.2;;;3.6;;
73421;SDS011;61637;47.760;-122.022;2023-04-01T08:24:11;7.6;;;6.0;;
73421;SDS011;61637;47.760;-122.022;2023-04-01T08:26:06;8.9;;;4.7;;
73421;SDS011;61637;47.760;-122.022;2023-04-01T08:28:08;8.8;;;5.3;;
73421;SDS011;61637;47.760;-122.022;2023-04-01T08:30:06;9.2;;;7.0;;
73421;SDS011;61637;47.760;-122.022;2023-04-01T08:32:07;8.5;;;3.8;;
73421;SDS011;61637;47.760;-122.022;2023-04-01T08:34:04;8.4;;;3.3;;
73421;SDS011;61637;47.760;-122.022;2023-04-01T08:36:06;7.8;;;2.4;;
73421;SDS011;61637;47.760;-122.022;2023-04-01T08:38:05;7.3;;;2.7;;
73421;SDS011;61637;47.760;-122.022;2023-04-01T08:40:20;7.9;;;4.1;;
73421;SDS011;61637;47.760;-122.022;2023-04-01T08:42:19;8.0;;;3.2;;
73421;SDS011;61637;47.760;-122.022;2023-04-01T08:44:10;8.1;;;3.4;;
73421;SDS011;61637;47.760;-122.022;2023-04-01T08:46:10;9.1;;;2.7;;
73421;SDS011;61637;47.760;-122.022;2023-04-01T08:50:19;6.0;;;1.1;;
73421;SDS011;61637;47.760;-122.022;2023-04-01T08:52:16;5.2;;;1.1;;
73421;SDS011;61637;47.760;-122.022;2023-04-01T08:54:10;4.6;;;0.9;;
73421;SDS011;61637;47.760;-122.022;2023-04-01T08:56:09;6.4;;;0.9;;
73421;SDS011;61637;47.760;-122.022;2023-04-01T08:58:21;6.0;;;1.1;;
73421;SDS011;61637;47.760;-122.022;2023-04-01T09:00:10;4.0;;;1.2;;
73421;SDS011;61637;47.760;-122.022;2023-04-01T09:02:18;5.2;;;1.0;;
73421;SDS011;61637;47.760;-122.022;2023-04-01T09:04:16;8.6;;;1.1;;
73421;SDS011;61637;47.760;-122.022;2023-04-01T09:08:14;8.1;;;1.6;;
73421;SDS011;61637;47.760;-122.022;2023-04-01T09:12:17;10.9;;;8.4;;
73421;SDS011;61637;47.760;-122.022;2023-04-01T09:16:19;11.5;;;9.8;;
73421;SDS011;61637;47.760;-122.022;2023-04-01T09:22:10;14.9;;;10.3;;
73421;SDS011;61637;47.760;-122.022;2023-04-01T09:26:08;12.7;;;10.7;;
73421;SDS011;61637;47.760;-122.022;2023-04-01T09:28:07;12.7;;;10.7;;
73421;SDS011;61637;47.760;-122.022;2023-04-01T09:32:17;10.1;;;3.5;;
73421;SDS011;61637;47.760;-122.022;2023-04-01T09:34:15;7.7;;;2.4;;
73421;SDS011;61637;47.760;-122.022;2023-04-01T09:36:07;7.7;;;2.4;;
73421;SDS011;61637;47.760;-122.022;2023-04-01T09:38:17;10.6;;;3.5;;
73421;SDS011;61637;47.760;-122.022;2023-04-01T09:40:14;10.3;;;3.1;;
73421;SDS011;61637;47.760;-122.022;2023-04-01T09:42:15;11.1;;;2.8;;
73421;SDS011;61637;47.760;-122.022;2023-04-01T09:44:03;10.7;;;3.3;;
73421;SDS011;61637;47.760;-122.022;2023-04-01T09:46:13;11.4;;;3.7;;
73421;SDS011;61637;47.760;-122.022;2023-04-01T09:48:13;13.1;;;7.6;;
73421;SDS011;61637;47.760;-122.022;2023-04-01T09:52:08;12.0;;;4.9;;
73421;SDS011;61637;47.760;-122.022;2023-04-01T09:54:16;10.4;;;4.3;;
73421;SDS011;61637;47.760;-122.022;2023-04-01T09:58:17;12.0;;;2.7;;
73421;SDS011;61637;47.760;-122.022;2023-04-01T10:00:20;8.5;;;2.1;;
73421;SDS011;61637;47.760;-122.022;2023-04-01T10:02:19;9.9;;;1.8;;
73421;SDS011;61637;47.760;-122.022;2023-04-01T10:12:17;9.4;;;1.7;;
73421;SDS011;61637;47.760;-122.022;2023-04-01T10:16:16;11.5;;;1.9;;
73421;SDS011;61637;47.760;-122.022;2023-04-01T10:20:15;11.2;;;1.7;;
73421;SDS011;61637;47.760;-122.022;2023-04-01T10:22:17;8.1;;;1.4;;
73421;SDS011;61637;47.760;-122.022;2023-04-01T10:24:18;11.6;;;1.8;;
73421;SDS011;61637;47.760;-122.022;2023-04-01T10:26:17;9.9;;;1.4;;
73421;SDS011;61637;47.760;-122.022;2023-04-01T10:30:19;10.1;;;1.6;;
73421;SDS011;61637;47.760;-122.022;2023-04-01T10:32:14;11.6;;;1.8;;
73421;SDS011;61637;47.760;-122.022;2023-04-01T10:34:16;13.2;;;1.6;;
73421;SDS011;61637;47.760;-122.022;2023-04-01T10:36:17;8.1;;;1.4;;
73421;SDS011;61637;47.760;-122.022;2023-04-01T10:42:16;9.3;;;1.5;;
73421;SDS011;61637;47.760;-122.022;2023-04-01T10:44:18;9.9;;;1.7;;
73421;SDS011;61637;47.760;-122.022;2023-04-01T10:48:18;8.5;;;1.4;;
73421;SDS011;61637;47.760;-122.022;2023-04-01T10:50:17;10.4;;;1.7;;
73421;SDS011;61637;47.760;-122.022;2023-04-01T10:54:17;9.8;;;1.5;;
73421;SDS011;61637;47.760;-122.022;2023-04-01T10:58:16;9.1;;;1.6;;
73421;SDS011;61637;47.760;-122.022;2023-04-01T11:00:15;12.6;;;1.7;;
73421;SDS011;61637;47.760;-122.022;2023-04-01T11:10:19;11.7;;;1.5;;
73421;SDS011;61637;47.760;-122.022;2023-04-01T11:12:09;13.9;;;1.7;;
73421;SDS011;61637;47.760;-122.022;2023-04-01T11:14:16;8.3;;;1.6;;
73421;SDS011;61637;47.760;-122.022;2023-04-01T11:18:17;10.4;;;1.5;;
73421;SDS011;61637;47.760;-122.022;2023-04-01T11:20:16;10.0;;;1.8;;
73421;SDS011;61637;47.760;-122.022;2023-04-01T11:22:15;15.0;;;1.8;;
73421;SDS011;61637;47.760;-122.022;2023-04-01T11:24:08;12.9;;;1.9;;
73421;SDS011;61637;47.760;-122.022;2023-04-01T11:26:06;11.6;;;1.8;;
73421;SDS011;61637;47.760;-122.022;2023-04-01T11:28:17;12.5;;;1.8;;
73421;SDS011;61637;47.760;-122.022;2023-04-01T11:30:15;11.0;;;1.5;;
73421;SDS011;61637;47.760;-122.022;2023-04-01T11:32:09;10.6;;;1.8;;
73421;SDS011;61637;47.760;-122.022;2023-04-01T11:34:11;13.1;;;1.9;;
73421;SDS011;61637;47.760;-122.022;2023-04-01T11:36:07;12.0;;;1.8;;
73421;SDS011;61637;47.760;-122.022;2023-04-01T11:38:09;9.4;;;1.8;;
73421;SDS011;61637;47.760;-122.022;2023-04-01T11:40:11;10.1;;;1.9;;
73421;SDS011;61637;47.760;-122.022;2023-04-01T11:42:13;13.7;;;1.7;;
73421;SDS011;61637;47.760;-122.022;2023-04-01T11:44:14;10.6;;;2.0;;
73421;SDS011;61637;47.760;-122.022;2023-04-01T11:46:09;15.5;;;2.1;;
73421;SDS011;61637;47.760;-122.022;2023-04-01T11:48:14;10.1;;;1.7;;
73421;SDS011;61637;47.760;-122.022;2023-04-01T11:50:14;9.6;;;1.6;;
73421;SDS011;61637;47.760;-122.022;2023-04-01T11:52:08;12.5;;;1.9;;
73421;SDS011;61637;47.760;-122.022;2023-04-01T11:54:10;10.9;;;1.6;;
73421;SDS011;61637;47.760;-122.022;2023-04-01T11:56:14;10.3;;;1.7;;
73421;SDS011;61637;47.760;-122.022;2023-04-01T11:58:14;13.0;;;1.9;;
73421;SDS011;61637;47.760;-122.022;2023-04-01T12:00:14;13.4;;;1.8;;
73421;SDS011;61637;47.760;-122.022;2023-04-01T12:02:09;11.8;;;2.1;;
73421;SDS011;61637;47.760;-122.022;2023-04-01T12:06:05;13.5;;;1.7;;
73421;SDS011;61637;47.760;-122.022;2023-04-01T12:08:09;13.6;;;2.0;;
73421;SDS011;61637;47.760;-122.022;2023-04-01T12:10:15;12.2;;;1.9;;
73421;SDS011;61637;47.760;-122.022;2023-04-01T12:12:12;12.3;;;1.9;;
73421;SDS011;61637;47.760;-122.022;2023-04-01T12:14:10;15.6;;;1.9;;
73421;SDS011;61637;47.760;-122.022;2023-04-01T12:16:10;13.1;;;1.9;;
73421;SDS011;61637;47.760;-122.022;2023-04-01T12:18:09;12.1;;;1.8;;
73421;SDS011;61637;47.760;-122.022;2023-04-01T12:22:10;11.7;;;1.9;;
73421;SDS011;61637;47.760;-122.022;2023-04-01T12:24:25;10.1;;;1.8;;
73421;SDS011;61637;47.760;-122.022;2023-04-01T12:26:15;12.0;;;1.7;;
73421;SDS011;61637;47.760;-122.022;2023-04-01T12:28:10;12.8;;;1.8;;
73421;SDS011;61637;47.760;-122.022;2023-04-01T12:32:09;12.0;;;1.6;;
73421;SDS011;61637;47.760;-122.022;2023-04-01T12:34:19;12.3;;;1.8;;
73421;SDS011;61637;47.760;-122.022;2023-04-01T12:36:13;11.5;;;1.7;;
73421;SDS011;61637;47.760;-122.022;2023-04-01T12:38:14;11.9;;;1.6;;
73421;SDS011;61637;47.760;-122.022;2023-04-01T12:40:19;12.4;;;1.9;;
73421;SDS011;61637;47.760;-122.022;2023-04-01T12:42:10;10.5;;;1.6;;
73421;SDS011;61637;47.760;-122.022;2023-04-01T12:44:16;10.9;;;1.5;;
73421;SDS011;61637;47.760;-122.022;2023-04-01T12:46:07;12.6;;;1.6;;
73421;SDS011;61637;47.760;-122.022;2023-04-01T12:50:20;7.3;;;1.5;;
73421;SDS011;61637;47.760;-122.022;2023-04-01T12:52:06;9.1;;;1.5;;
73421;SDS011;61637;47.760;-122.022;2023-04-01T12:54:18;8.6;;;1.5;;